createdAt,value
2019-06-07T00:00:43.217Z,76.40
2019-06-07T00:03:23.972Z,76.90
2019-06-07T00:05:41.806Z,77.00
2019-06-07T00:08:17.207Z,76.30
2019-06-07T00:10:40.501Z,76.60
2019-06-07T00:13:09.704Z,76.30
2019-06-07T00:15:38.329Z,76.70
2019-06-07T00:18:11.160Z,76.20
2019-06-07T00:20:37.089Z,76.90
2019-06-07T00:23:05.654Z,77.40
2019-06-07T00:25:34.095Z,77.60
2019-06-07T00:28:02.594Z,77.50
2019-06-07T00:30:42.510Z,77.10
2019-06-07T00:33:01.321Z,76.80
2019-06-07T00:35:29.780Z,77.30
2019-06-07T00:37:58.225Z,77.10
2019-06-07T00:40:31.884Z,77.50
2019-06-07T00:42:56.835Z,77.30
2019-06-07T00:45:25.257Z,76.90
2019-06-07T00:47:53.715Z,76.80
2019-06-07T00:50:24.124Z,76.40
2019-06-07T00:53:14.650Z,76.50
2019-06-07T00:55:27.252Z,76.90
2019-06-07T00:57:52.712Z,77.30
2019-06-07T01:00:23.596Z,76.90
2019-06-07T01:02:51.763Z,77.10
2019-06-07T01:05:23.433Z,76.70
2019-06-07T01:07:50.420Z,76.50
2019-06-07T01:10:46.107Z,77.00
2019-06-07T01:12:49.578Z,77.20
2019-06-07T01:15:28.885Z,77.20
2019-06-07T01:18:33.085Z,77.50
2019-06-07T01:20:26.655Z,77.10
2019-06-07T01:22:54.836Z,77.00
2019-06-07T01:25:26.150Z,76.70
2019-06-07T01:27:53.391Z,77.20
2019-06-07T01:30:26.029Z,77.00
2019-06-07T01:32:52.808Z,76.90
2019-06-07T01:35:22.094Z,77.10
2019-06-07T01:37:51.388Z,77.40
2019-06-07T01:40:23.462Z,77.60
2019-06-07T01:42:50.809Z,77.70
2019-06-07T01:45:21.205Z,77.70
2019-06-07T01:47:49.794Z,77.70
2019-06-07T01:50:22.591Z,78.50
2019-06-07T01:52:49.361Z,77.80
2019-06-07T01:55:18.985Z,77.40
2019-06-07T01:57:48.739Z,78.20
2019-06-07T02:00:17.739Z,77.70
2019-06-07T02:02:46.288Z,77.70
2019-06-07T02:05:15.101Z,78.50
2019-06-07T02:07:43.614Z,77.90
2019-06-07T02:10:13.809Z,77.90
2019-06-07T02:12:43.445Z,77.20
2019-06-07T02:15:13.388Z,76.90
2019-06-07T02:17:41.833Z,76.80
2019-06-07T02:20:10.628Z,77.00
2019-06-07T02:22:39.154Z,77.10
2019-06-07T02:27:38.591Z,76.70
2019-06-07T02:30:37.155Z,76.60
2019-06-07T02:32:38.122Z,76.40
2019-06-07T02:35:07.724Z,76.20
2019-06-07T02:37:37.242Z,76.10
2019-06-07T02:40:08.243Z,76.80
2019-06-07T02:42:42.036Z,76.30
2019-06-07T02:45:10.752Z,76.40
2019-06-07T02:47:39.343Z,76.20
2019-06-07T02:50:12.011Z,75.90
2019-06-07T02:52:41.501Z,76.10
2019-06-07T02:55:11.159Z,76.10
2019-06-07T02:57:41.820Z,76.00
2019-06-07T03:00:41.792Z,76.50
2019-06-07T03:02:45.703Z,76.50
2019-06-07T03:05:14.410Z,76.00
2019-06-07T03:07:45.452Z,75.80
2019-06-07T03:10:15.989Z,75.50
2019-06-07T03:12:46.913Z,76.20
2019-06-07T03:15:32.121Z,75.30
2019-06-07T03:18:06.760Z,75.10
2019-06-07T03:20:36.897Z,75.30
2019-06-07T03:23:05.673Z,75.00
2019-06-07T03:25:39.110Z,75.10
2019-06-07T03:28:07.862Z,75.20
2019-06-07T03:30:48.826Z,75.10
2019-06-07T03:33:06.448Z,75.20
2019-06-07T03:35:37.335Z,75.10
2019-06-07T03:38:05.048Z,74.90
2019-06-07T03:40:36.867Z,75.40
2019-06-07T03:43:03.623Z,76.40
2019-06-07T03:45:33.112Z,76.30
2019-06-07T03:48:02.226Z,76.40
2019-06-07T03:50:33.535Z,75.80
2019-06-07T03:53:00.812Z,76.10
2019-06-07T03:55:30.555Z,76.80
2019-06-07T03:58:30.762Z,76.90
2019-06-07T04:00:32.942Z,76.70
2019-06-07T04:02:59.928Z,76.40
2019-06-07T04:05:29.645Z,75.80
2019-06-07T04:07:58.648Z,75.70
2019-06-07T04:10:44.751Z,75.70
2019-06-07T04:12:57.222Z,75.40
2019-06-07T04:15:25.640Z,75.10
2019-06-07T04:18:01.962Z,74.80
2019-06-07T04:20:24.220Z,75.30
2019-06-07T04:22:52.664Z,75.40
2019-06-07T04:25:21.153Z,75.80
2019-06-07T04:27:49.595Z,75.90
2019-06-07T04:30:21.098Z,75.80
2019-06-07T04:32:49.539Z,74.80
2019-06-07T04:35:17.984Z,74.80
2019-06-07T04:37:46.872Z,75.10
2019-06-07T04:40:15.858Z,75.00
2019-06-07T04:42:45.924Z,74.70
2019-06-07T04:45:32.980Z,74.50
2019-06-07T04:47:46.279Z,74.40
2019-06-07T04:50:14.877Z,74.10
2019-06-07T04:52:45.329Z,74.40
2019-06-07T04:55:13.739Z,74.60
2019-06-07T04:57:43.082Z,74.90
2019-06-07T05:00:46.310Z,75.00
2019-06-07T05:02:43.478Z,75.00
2019-06-07T05:05:12.491Z,75.70
2019-06-07T05:07:46.073Z,75.60
2019-06-07T05:10:11.165Z,75.50
2019-06-07T05:12:43.979Z,75.60
2019-06-07T05:15:09.999Z,75.50
2019-06-07T05:17:42.438Z,75.50
2019-06-07T05:20:08.667Z,75.70
2019-06-07T05:22:42.042Z,75.70
2019-06-07T05:25:08.194Z,75.60
2019-06-07T05:27:39.382Z,75.40
2019-06-07T05:30:24.326Z,75.40
2019-06-07T05:32:43.619Z,75.00
2019-06-07T05:35:11.526Z,75.40
2019-06-07T05:37:41.769Z,75.70
2019-06-07T05:40:10.746Z,75.70
2019-06-07T05:42:43.296Z,75.60
2019-06-07T05:45:09.573Z,75.60
2019-06-07T05:47:43.732Z,75.60
2019-06-07T05:50:38.044Z,76.20
2019-06-07T05:52:42.199Z,75.10
2019-06-07T05:55:08.997Z,75.10
2019-06-07T05:57:40.441Z,75.10
2019-06-07T06:00:08.056Z,75.20
2019-06-07T06:02:58.591Z,74.70
2019-06-07T06:05:07.159Z,74.40
2019-06-07T06:07:38.855Z,74.50
2019-06-07T06:10:08.271Z,74.80
2019-06-07T06:12:40.853Z,74.70
2019-06-07T06:15:08.281Z,75.00
2019-06-07T06:17:40.329Z,75.60
2019-06-07T06:20:07.661Z,75.80
2019-06-07T06:22:37.442Z,76.50
2019-06-07T06:30:12.626Z,77.10
2019-06-07T06:32:49.336Z,77.00
2019-06-07T06:35:12.047Z,77.20
2019-06-07T06:37:42.433Z,76.90
2019-06-07T06:40:12.775Z,76.90
2019-06-07T06:42:42.243Z,77.50
2019-06-07T06:45:12.875Z,77.80
2019-06-07T06:47:43.155Z,78.00
2019-06-07T06:50:13.517Z,78.30
2019-06-07T06:52:43.997Z,78.80
2019-06-07T06:55:12.645Z,79.10
2019-06-07T06:57:41.782Z,78.80
2019-06-07T07:00:15.107Z,79.00
2019-06-07T07:03:32.564Z,79.40
2019-06-07T07:05:14.150Z,79.20
2019-06-07T07:07:43.021Z,79.10
2019-06-07T07:10:12.184Z,78.30
2019-06-07T07:12:40.793Z,78.50
2019-06-07T07:15:16.879Z,78.80
2019-06-07T07:17:53.917Z,78.40
2019-06-07T07:20:15.637Z,78.40
2019-06-07T07:22:46.393Z,78.00
2019-06-07T07:25:14.795Z,77.70
2019-06-07T07:27:44.592Z,78.70
2019-06-07T07:30:36.177Z,78.40
2019-06-07T07:32:45.537Z,78.70
2019-06-07T07:35:14.329Z,78.20
2019-06-07T07:37:43.739Z,77.90
2019-06-07T07:40:55.444Z,77.80
2019-06-07T07:42:43.336Z,77.50
2019-06-07T07:45:13.344Z,78.00
2019-06-07T07:47:58.354Z,78.00
2019-06-07T07:50:12.012Z,78.30
2019-06-07T07:52:40.521Z,78.80
2019-06-07T07:55:09.986Z,79.40
2019-06-07T07:57:38.568Z,79.80
2019-06-07T08:00:48.522Z,79.60
2019-06-07T08:02:38.360Z,79.20
2019-06-07T08:05:21.399Z,80.00
2019-06-07T08:07:38.332Z,79.90
2019-06-07T08:10:08.418Z,79.10
2019-06-07T08:12:55.811Z,79.80
2019-06-07T08:15:07.776Z,79.40
2019-06-07T08:17:36.343Z,80.40
2019-06-07T08:20:07.548Z,78.90
2019-06-07T08:22:35.993Z,79.00
2019-06-07T08:25:08.762Z,79.80
2019-06-07T08:27:37.340Z,79.20
2019-06-07T08:30:46.613Z,79.10
2019-06-07T08:32:38.276Z,79.60
2019-06-07T08:35:07.742Z,79.50
2019-06-07T08:38:14.685Z,80.20
2019-06-07T08:40:08.703Z,79.40
2019-06-07T08:42:56.154Z,80.00
2019-06-07T08:45:09.347Z,80.70
2019-06-07T08:47:38.049Z,79.20
2019-06-07T08:50:08.957Z,79.40
2019-06-07T08:52:37.517Z,79.60
2019-06-07T08:55:07.535Z,80.00
2019-06-07T08:57:35.961Z,79.20
2019-06-07T09:00:42.457Z,80.10
2019-06-07T09:02:37.577Z,80.00
2019-06-07T09:05:12.563Z,80.00
2019-06-07T09:07:37.568Z,79.70
2019-06-07T09:10:14.605Z,80.40
2019-06-07T09:12:40.000Z,80.30
2019-06-07T09:15:20.179Z,79.30
2019-06-07T09:18:29.686Z,79.10
2019-06-07T09:20:35.065Z,80.00
2019-06-07T09:22:41.889Z,80.10
2019-06-07T09:25:20.766Z,78.80
2019-06-07T09:27:41.218Z,79.00
2019-06-07T09:30:16.611Z,79.60
2019-06-07T09:32:41.254Z,78.40
2019-06-07T09:35:16.475Z,78.90
2019-06-07T09:38:07.323Z,78.60
2019-06-07T09:40:25.051Z,77.60
2019-06-07T09:42:41.422Z,77.40
2019-06-07T09:45:13.841Z,78.00
2019-06-07T09:47:40.221Z,77.90
2019-06-07T09:50:11.986Z,76.20
2019-06-07T09:52:56.928Z,76.40
2019-06-07T09:55:22.865Z,76.20
2019-06-07T09:57:39.481Z,76.00
2019-06-07T10:00:39.043Z,75.70
2019-06-07T10:02:45.545Z,76.10
2019-06-07T10:05:14.942Z,76.90
2019-06-07T10:07:59.560Z,75.60
2019-06-07T10:12:44.492Z,75.90
2019-06-07T10:15:13.065Z,75.40
2019-06-07T10:17:41.520Z,73.60
2019-06-07T10:20:10.196Z,75.40
2019-06-07T10:22:38.993Z,74.00
2019-06-07T10:25:08.496Z,75.70
2019-06-07T10:27:37.250Z,73.90
2019-06-07T10:30:10.403Z,75.30
2019-06-07T10:32:39.117Z,75.10
2019-06-07T10:35:09.604Z,74.20
2019-06-07T10:37:38.160Z,73.30
2019-06-07T10:40:09.284Z,73.40
2019-06-07T10:42:38.016Z,73.10
2019-06-07T10:45:08.366Z,72.40
2019-06-07T10:47:37.430Z,72.00
2019-06-07T10:50:07.902Z,72.20
2019-06-07T10:52:36.590Z,70.80
2019-06-07T10:55:06.596Z,71.00
2019-06-07T10:57:35.365Z,72.70
2019-06-07T11:00:09.507Z,70.90
2019-06-07T11:02:38.262Z,70.60
2019-06-07T11:05:09.659Z,69.50
2019-06-07T11:07:38.705Z,69.60
2019-06-07T11:10:13.344Z,70.60
2019-06-07T11:12:37.896Z,71.10
2019-06-07T11:15:08.808Z,70.90
2019-06-07T11:17:37.660Z,70.50
2019-06-07T11:20:10.331Z,68.00
2019-06-07T11:22:38.954Z,68.20
2019-06-07T11:25:09.265Z,68.70
2019-06-07T11:27:38.693Z,67.50
2019-06-07T11:30:08.368Z,68.60
2019-06-07T11:32:37.029Z,68.00
2019-06-07T11:35:08.212Z,68.10
2019-06-07T11:37:37.003Z,66.90
2019-06-07T11:40:24.020Z,66.10
2019-06-07T11:42:37.548Z,67.10
2019-06-07T11:45:07.947Z,67.80
2019-06-07T11:47:37.470Z,67.70
2019-06-07T11:50:07.842Z,66.60
2019-06-07T11:52:36.408Z,65.60
2019-06-07T11:55:09.182Z,64.50
2019-06-07T11:57:37.881Z,65.00
2019-06-07T12:00:11.581Z,64.20
2019-06-07T12:02:40.408Z,63.30
2019-06-07T12:05:12.659Z,63.40
2019-06-07T12:07:39.546Z,63.20
2019-06-07T12:10:10.745Z,63.70
2019-06-07T12:12:39.373Z,64.70
2019-06-07T12:15:08.905Z,62.70
2019-06-07T12:17:37.646Z,62.00
2019-06-07T12:20:10.201Z,61.60
2019-06-07T12:22:38.031Z,62.20
2019-06-07T12:25:10.538Z,61.90
2019-06-07T12:27:39.195Z,60.60
2019-06-07T12:30:15.458Z,61.70
2019-06-07T12:32:39.467Z,60.40
2019-06-07T12:35:08.646Z,59.90
2019-06-07T12:37:43.631Z,59.70
2019-06-07T12:40:08.919Z,60.80
2019-06-07T12:42:37.719Z,58.80
2019-06-07T12:45:08.508Z,59.70
2019-06-07T12:47:36.944Z,59.10
2019-06-07T12:50:07.429Z,58.60
2019-06-07T12:52:36.053Z,58.50
2019-06-07T12:55:06.712Z,60.00
2019-06-07T12:57:35.143Z,58.60
2019-06-07T13:00:08.330Z,56.60
2019-06-07T13:02:36.780Z,57.10
2019-06-07T13:05:08.880Z,57.00
2019-06-07T13:07:37.380Z,57.70
2019-06-07T13:10:07.639Z,56.30
2019-06-07T13:12:36.085Z,55.80
2019-06-07T13:15:08.473Z,56.00
2019-06-07T13:17:37.611Z,56.30
2019-06-07T13:20:07.591Z,56.30
2019-06-07T13:22:36.269Z,56.00
2019-06-07T13:25:07.108Z,57.00
2019-06-07T13:27:35.781Z,56.70
2019-06-07T13:30:10.070Z,56.00
2019-06-07T13:32:36.737Z,55.20
2019-06-07T13:35:06.905Z,55.50
2019-06-07T13:37:35.351Z,55.00
2019-06-07T13:40:06.395Z,54.30
2019-06-07T13:42:34.851Z,55.10
2019-06-07T13:45:04.525Z,54.50
2019-06-07T13:47:32.946Z,54.80
2019-06-07T13:50:01.389Z,54.50
2019-06-07T13:52:29.825Z,53.50
2019-06-07T13:55:02.021Z,53.40
2019-06-07T13:57:28.429Z,52.70
2019-06-07T13:59:56.865Z,52.20
2019-06-07T14:02:26.195Z,51.40
2019-06-07T14:04:55.498Z,51.30
2019-06-07T14:07:26.347Z,50.60
2019-06-07T14:09:54.104Z,51.90
2019-06-07T14:12:24.084Z,50.90
2019-06-07T14:14:52.783Z,51.20
2019-06-07T14:17:21.216Z,50.70
2019-06-07T14:19:49.707Z,50.70
2019-06-07T14:22:18.225Z,49.50
2019-06-07T14:24:46.861Z,50.10
2019-06-07T14:27:15.421Z,50.00
2019-06-07T14:29:46.658Z,49.80
2019-06-07T14:32:15.144Z,48.50
2019-06-07T14:34:43.896Z,49.40
2019-06-07T14:37:12.319Z,47.90
2019-06-07T14:39:40.880Z,47.90
2019-06-07T14:42:10.449Z,48.40
2019-06-07T14:44:39.132Z,48.80
2019-06-07T14:47:07.567Z,48.20
2019-06-07T14:49:36.017Z,48.90
2019-06-07T14:52:04.930Z,48.60
2019-06-07T14:54:36.108Z,47.80
2019-06-07T14:57:03.782Z,46.80
2019-06-07T14:59:32.831Z,46.60
2019-06-07T15:02:01.601Z,46.90
2019-06-07T15:04:30.696Z,45.00
2019-06-07T15:06:59.376Z,45.50
2019-06-07T15:09:29.057Z,46.50
2019-06-07T15:11:57.737Z,46.70
2019-06-07T15:14:27.317Z,46.20
2019-06-07T15:16:55.922Z,46.10
2019-06-07T15:19:24.462Z,45.60
2019-06-07T15:21:53.013Z,45.50
2019-06-07T15:24:21.465Z,45.20
2019-06-07T15:26:49.959Z,45.00
2019-06-07T15:29:18.403Z,44.50
2019-06-07T15:31:46.906Z,44.90
2019-06-07T15:34:15.353Z,44.80
2019-06-07T15:36:43.788Z,45.00
2019-06-07T15:39:12.220Z,44.90
2019-06-07T15:41:40.744Z,45.30
2019-06-07T15:44:09.180Z,45.30
2019-06-07T15:46:38.084Z,44.70
2019-06-07T15:49:06.790Z,45.30
2019-06-07T15:51:36.542Z,45.20
2019-06-07T15:54:05.788Z,44.60
2019-06-07T15:56:34.713Z,44.80
2019-06-07T15:59:03.381Z,45.00
2019-06-07T16:01:33.357Z,46.00
2019-06-07T16:04:02.486Z,45.50
2019-06-07T16:06:32.070Z,45.70
2019-06-07T16:09:00.631Z,45.40
2019-06-07T16:11:29.777Z,45.40
2019-06-07T16:13:58.213Z,45.00
2019-06-07T16:16:26.750Z,46.00
2019-06-07T16:18:55.442Z,46.70
2019-06-07T16:21:23.918Z,46.40
2019-06-07T16:23:52.456Z,45.70
2019-06-07T16:26:20.874Z,45.90
2019-06-07T16:28:49.319Z,45.70
2019-06-07T16:31:17.900Z,46.00
2019-06-07T16:33:46.329Z,45.90
2019-06-07T16:36:14.768Z,47.10
2019-06-07T16:38:44.357Z,50.20
2019-06-07T16:41:13.036Z,51.80
2019-06-07T16:43:42.694Z,53.00
2019-06-07T16:46:11.249Z,53.80
2019-06-07T16:48:40.810Z,54.70
2019-06-07T16:51:09.553Z,55.30
2019-06-07T16:53:38.232Z,55.70
2019-06-07T16:56:06.868Z,56.00
2019-06-07T16:58:35.323Z,56.50
2019-06-07T17:01:03.942Z,56.70
2019-06-07T17:03:32.466Z,57.00
2019-06-07T17:06:00.988Z,56.10
2019-06-07T17:08:29.411Z,56.90
2019-06-07T17:10:57.849Z,56.30
2019-06-07T17:13:33.307Z,53.80
2019-06-07T17:15:56.601Z,51.80
2019-06-07T17:18:25.055Z,51.80
2019-06-07T17:20:53.510Z,52.10
2019-06-07T17:23:21.926Z,52.50
2019-06-07T17:25:50.371Z,53.00
2019-06-07T17:28:18.798Z,53.80
2019-06-07T17:30:48.329Z,54.60
2019-06-07T17:33:16.894Z,55.60
2019-06-07T17:35:46.497Z,56.30
2019-06-07T17:38:15.208Z,56.60
2019-06-07T17:40:44.874Z,56.60
2019-06-07T17:43:13.508Z,57.10
2019-06-07T17:45:43.343Z,56.90
2019-06-07T17:48:12.090Z,57.10
2019-06-07T17:50:41.635Z,56.10
2019-06-07T17:53:10.150Z,55.50
2019-06-07T17:55:38.765Z,55.40
2019-06-07T17:58:07.259Z,55.60
2019-06-07T18:00:44.635Z,55.60
2019-06-07T18:03:13.213Z,55.40
2019-06-07T18:05:43.194Z,55.50
2019-06-07T18:08:12.359Z,55.70
2019-06-07T18:10:41.357Z,55.60
2019-06-07T18:13:09.854Z,56.00
2019-06-07T18:15:47.646Z,55.60
2019-06-07T18:18:16.654Z,55.20
2019-06-07T18:20:45.259Z,54.80
2019-06-07T18:23:13.934Z,54.30
2019-06-07T18:25:42.567Z,54.40
2019-06-07T18:28:11.170Z,54.50
2019-06-07T18:30:39.844Z,54.30
2019-06-07T18:33:08.347Z,55.30
2019-06-07T18:35:36.768Z,54.50
2019-06-07T18:38:05.401Z,54.60
2019-06-07T18:40:34.003Z,54.10
2019-06-07T18:43:02.550Z,53.80
2019-06-07T18:45:31.002Z,53.40
2019-06-07T18:47:59.441Z,53.00
2019-06-07T18:50:27.876Z,53.00
2019-06-07T18:52:56.323Z,52.80
2019-06-07T18:55:26.118Z,53.00
2019-06-07T18:57:54.651Z,52.90
2019-06-07T19:00:24.497Z,53.30
2019-06-07T19:02:54.018Z,53.30
2019-06-07T19:05:22.909Z,53.10
2019-06-07T19:07:52.526Z,53.20
2019-06-07T19:10:23.564Z,52.90
2019-06-07T19:12:53.127Z,53.00
2019-06-07T19:15:23.814Z,53.10
2019-06-07T19:17:52.276Z,53.50
2019-06-07T19:20:21.746Z,53.60
2019-06-07T19:22:51.982Z,53.50
2019-06-07T19:25:21.373Z,53.40
2019-06-07T19:27:50.637Z,53.00
2019-06-07T19:30:19.795Z,53.10
2019-06-07T19:32:49.752Z,53.00
2019-06-07T19:35:18.947Z,52.60
2019-06-07T19:37:47.383Z,52.40
2019-06-07T19:40:16.429Z,52.50
2019-06-07T19:42:44.860Z,52.40
2019-06-07T19:45:29.518Z,52.30
2019-06-07T19:47:43.699Z,52.10
2019-06-07T19:50:12.732Z,52.20
2019-06-07T19:52:41.247Z,52.10
2019-06-07T19:55:10.726Z,52.60
2019-06-07T19:57:39.386Z,52.30
2019-06-07T20:00:13.998Z,52.50
2019-06-07T20:02:40.656Z,52.60
2019-06-07T20:05:12.307Z,52.80
2019-06-07T20:07:41.577Z,52.80
2019-06-07T20:10:13.350Z,52.80
2019-06-07T20:12:41.789Z,53.00
2019-06-07T20:15:27.677Z,53.80
2019-06-07T20:17:41.931Z,52.90
2019-06-07T20:20:11.224Z,52.90
2019-06-07T20:22:39.631Z,53.00
2019-06-07T20:25:09.279Z,53.20
2019-06-07T20:27:37.889Z,53.40
2019-06-07T20:30:11.721Z,53.40
2019-06-07T20:32:40.170Z,53.30
2019-06-07T20:35:09.694Z,53.30
2019-06-07T20:37:38.175Z,53.30
2019-06-07T20:40:22.975Z,53.20
2019-06-07T20:42:39.139Z,53.40
2019-06-07T20:45:08.859Z,53.40
2019-06-07T20:47:37.323Z,53.20
2019-06-07T20:50:08.682Z,53.10
2019-06-07T20:52:37.605Z,53.30
2019-06-07T20:55:09.790Z,53.90
2019-06-07T20:57:38.463Z,54.10
2019-06-07T21:00:14.314Z,53.60
2019-06-07T21:02:39.310Z,54.30
2019-06-07T21:05:07.801Z,53.50
2019-06-07T21:07:36.243Z,53.40
2019-06-07T21:10:08.371Z,53.60
2019-06-07T21:12:37.096Z,53.30
2019-06-07T21:15:10.724Z,53.70
2019-06-07T21:17:36.948Z,53.70
2019-06-07T21:20:08.060Z,53.50
2019-06-07T21:22:36.671Z,53.50
2019-06-07T21:25:09.483Z,53.70
2019-06-07T21:27:38.230Z,53.60
2019-06-07T21:30:09.496Z,53.40
2019-06-07T21:32:38.444Z,53.70
2019-06-07T21:35:08.152Z,53.80
2019-06-07T21:37:36.814Z,54.10
2019-06-07T21:40:06.175Z,54.00
2019-06-07T21:42:34.630Z,54.30
2019-06-07T21:45:05.684Z,54.60
2019-06-07T21:47:33.618Z,55.40
2019-06-07T21:50:02.594Z,55.00
2019-06-07T21:52:31.161Z,55.60
2019-06-07T21:54:59.597Z,57.50
2019-06-07T21:57:28.043Z,58.10
2019-06-07T21:59:56.594Z,59.50
2019-06-07T22:02:25.089Z,60.60
2019-06-07T22:04:53.563Z,60.70
2019-06-07T22:07:22.117Z,60.90
2019-06-07T22:09:50.566Z,60.50
2019-06-07T22:12:19.036Z,61.40
2019-06-07T22:14:47.523Z,61.60
2019-06-07T22:17:16.288Z,62.20
2019-06-07T22:19:45.579Z,62.90
2019-06-07T22:22:14.883Z,63.40
2019-06-07T22:24:43.899Z,64.10
2019-06-07T22:27:13.475Z,65.00
2019-06-07T22:29:42.128Z,64.40
2019-06-07T22:32:10.953Z,64.30
2019-06-07T22:34:42.124Z,64.90
2019-06-07T22:37:11.292Z,65.10
2019-06-07T22:39:39.945Z,66.10
2019-06-07T22:42:08.791Z,66.70
2019-06-07T22:44:40.026Z,66.80
2019-06-07T22:47:08.033Z,67.60
2019-06-07T22:49:36.700Z,67.50
2019-06-07T22:52:08.860Z,67.90
2019-06-07T22:54:35.364Z,66.40
2019-06-07T22:57:05.418Z,65.50
2019-06-07T22:59:33.879Z,66.40
2019-06-07T23:02:02.342Z,66.00
2019-06-07T23:04:30.801Z,66.50
2019-06-07T23:06:59.240Z,66.60
2019-06-07T23:09:27.650Z,67.20
2019-06-07T23:11:56.126Z,66.30
2019-06-07T23:14:25.723Z,67.20
2019-06-07T23:16:56.046Z,67.50
2019-06-07T23:19:24.581Z,68.60
2019-06-07T23:21:53.099Z,66.90
2019-06-07T23:24:21.624Z,67.60
2019-06-07T23:26:50.257Z,68.20
2019-06-07T23:29:18.710Z,68.10
2019-06-07T23:31:47.339Z,67.30
2019-06-07T23:34:16.776Z,68.50
2019-06-07T23:36:45.350Z,68.10
2019-06-07T23:39:15.275Z,67.90
2019-06-07T23:41:44.020Z,68.30
2019-06-07T23:44:13.331Z,68.50
2019-06-07T23:46:42.050Z,68.00
2019-06-07T23:49:11.878Z,67.80
2019-06-07T23:51:40.570Z,68.60
2019-06-07T23:54:09.062Z,68.60
2019-06-07T23:56:37.531Z,68.70
2019-06-07T23:59:06.028Z,68.70
